createdAt,value
2022-12-20T00:01:32.249Z,12.60
2022-12-20T00:04:02.292Z,14.82
2022-12-20T00:06:29.615Z,13.00
2022-12-20T00:08:58.138Z,12.35
2022-12-20T00:11:25.653Z,10.55
2022-12-20T00:13:52.871Z,10.88
2022-12-20T00:16:27.993Z,13.55
2022-12-20T00:18:57.334Z,11.18
2022-12-20T00:21:24.815Z,11.02
2022-12-20T00:23:52.609Z,10.75
2022-12-20T00:26:22.377Z,8.82
2022-12-20T00:28:49.606Z,9.45
2022-12-20T00:31:18.166Z,11.35
2022-12-20T00:33:46.679Z,9.65
2022-12-20T00:36:13.995Z,9.85
2022-12-20T00:38:41.308Z,10.40
2022-12-20T00:41:10.337Z,9.10
2022-12-20T00:43:38.027Z,10.80
2022-12-20T00:46:05.950Z,9.95
2022-12-20T00:48:33.335Z,11.77
2022-12-20T00:51:01.511Z,11.48
2022-12-20T00:53:28.894Z,10.45
2022-12-20T00:55:56.273Z,8.43
2022-12-20T00:58:23.594Z,11.85
2022-12-20T01:00:56.190Z,12.48
2022-12-20T01:03:25.187Z,8.10
2022-12-20T01:05:53.697Z,7.47
2022-12-20T01:08:21.025Z,9.18
2022-12-20T01:10:58.019Z,8.50
2022-12-20T01:13:25.608Z,9.57
2022-12-20T01:15:52.803Z,7.55
2022-12-20T01:18:20.125Z,5.82
2022-12-20T01:20:47.370Z,6.47
2022-12-20T01:23:14.530Z,8.05
2022-12-20T01:25:41.745Z,6.18
2022-12-20T01:28:10.052Z,6.00
2022-12-20T01:30:41.349Z,10.65
2022-12-20T01:33:08.581Z,6.30
2022-12-20T01:35:35.790Z,6.13
2022-12-20T01:38:03.125Z,6.50
2022-12-20T01:40:30.323Z,5.35
2022-12-20T01:42:57.516Z,7.38
2022-12-20T01:45:29.162Z,6.65
2022-12-20T01:47:57.765Z,5.22
2022-12-20T01:50:24.988Z,6.38
2022-12-20T01:52:52.206Z,4.32
2022-12-20T01:55:24.236Z,6.63
2022-12-20T01:57:57.107Z,6.95
2022-12-20T02:00:24.447Z,4.10
2022-12-20T02:02:51.873Z,6.78
2022-12-20T02:05:20.536Z,5.10
2022-12-20T02:07:49.972Z,5.85
2022-12-20T02:10:17.468Z,6.60
2022-12-20T02:12:45.823Z,4.68
2022-12-20T02:15:20.253Z,4.50
2022-12-20T02:18:05.896Z,4.35
2022-12-20T02:20:57.948Z,5.63
2022-12-20T02:24:07.964Z,4.82
2022-12-20T02:27:19.244Z,5.15
2022-12-20T02:30:03.535Z,6.00
2022-12-20T02:33:03.851Z,4.32
2022-12-20T02:35:34.031Z,8.15
2022-12-20T02:38:03.836Z,5.60
2022-12-20T02:40:35.168Z,5.70
2022-12-20T02:43:04.939Z,3.90
2022-12-20T02:45:34.640Z,5.40
2022-12-20T02:48:03.453Z,6.03
2022-12-20T02:50:40.178Z,4.63
2022-12-20T02:53:07.504Z,6.13
2022-12-20T02:55:50.888Z,6.03
2022-12-20T02:58:26.356Z,6.22
2022-12-20T03:00:53.607Z,7.10
2022-12-20T03:03:23.605Z,4.47
2022-12-20T03:05:53.332Z,5.72
2022-12-20T03:08:21.318Z,4.20
2022-12-20T03:10:49.619Z,5.13
2022-12-20T03:13:17.226Z,4.32
2022-12-20T03:15:50.180Z,5.40
2022-12-20T03:18:17.444Z,4.68
2022-12-20T03:20:44.669Z,6.47
2022-12-20T03:23:11.916Z,4.18
2022-12-20T03:25:39.615Z,5.50
2022-12-20T03:28:09.052Z,5.80
2022-12-20T03:30:36.814Z,6.10
2022-12-20T03:33:04.171Z,7.38
2022-12-20T03:35:31.644Z,7.30
2022-12-20T03:37:59.287Z,3.97
2022-12-20T03:40:26.623Z,7.93
2022-12-20T03:42:54.425Z,7.60
2022-12-20T03:45:21.696Z,5.90
2022-12-20T03:47:49.700Z,5.85
2022-12-20T03:50:17.873Z,7.00
2022-12-20T03:52:45.267Z,6.32
2022-12-20T03:55:12.676Z,6.20
2022-12-20T03:57:42.197Z,7.28
2022-12-20T04:00:23.319Z,6.75
2022-12-20T04:02:53.764Z,5.88
2022-12-20T04:05:21.780Z,6.72
2022-12-20T04:07:48.977Z,5.85
2022-12-20T04:10:16.261Z,5.60
2022-12-20T04:12:43.569Z,5.10
2022-12-20T04:15:12.384Z,6.07
2022-12-20T04:17:41.712Z,7.43
2022-12-20T04:20:21.684Z,5.07
2022-12-20T04:22:56.660Z,6.25
2022-12-20T04:25:24.277Z,6.05
2022-12-20T04:27:55.573Z,5.68
2022-12-20T04:30:22.762Z,4.63
2022-12-20T04:32:54.620Z,6.60
2022-12-20T04:35:22.485Z,7.50
2022-12-20T04:37:50.229Z,9.15
2022-12-20T04:40:18.420Z,5.85
2022-12-20T04:42:55.385Z,8.35
2022-12-20T04:45:22.962Z,5.05
2022-12-20T04:47:51.938Z,7.03
2022-12-20T04:50:25.357Z,5.10
2022-12-20T04:53:11.691Z,7.00
2022-12-20T04:55:39.608Z,5.88
2022-12-20T04:58:07.982Z,5.90
2022-12-20T05:00:37.622Z,6.38
2022-12-20T05:03:18.096Z,6.45
2022-12-20T05:05:45.475Z,6.38
2022-12-20T05:08:12.818Z,6.50
2022-12-20T05:10:40.247Z,7.20
2022-12-20T05:13:09.442Z,5.72
2022-12-20T05:15:43.423Z,7.10
2022-12-20T05:18:11.319Z,5.32
2022-12-20T05:21:11.275Z,7.80
2022-12-20T05:23:57.927Z,6.93
2022-12-20T05:26:31.455Z,6.00
2022-12-20T05:28:58.689Z,6.43
2022-12-20T05:31:27.775Z,6.60
2022-12-20T05:33:55.289Z,8.02
2022-12-20T05:36:25.392Z,5.32
2022-12-20T05:38:58.095Z,7.25
2022-12-20T05:41:29.478Z,5.75
2022-12-20T05:43:56.708Z,5.38
2022-12-20T05:46:25.406Z,6.40
2022-12-20T05:49:01.062Z,5.32
2022-12-20T05:51:28.813Z,6.63
2022-12-20T05:54:19.260Z,6.10
2022-12-20T05:56:53.333Z,7.85
2022-12-20T05:59:25.919Z,7.10
2022-12-20T06:01:53.193Z,5.68
2022-12-20T06:04:21.150Z,4.95
2022-12-20T06:06:49.181Z,6.13
2022-12-20T06:09:19.161Z,7.85
2022-12-20T06:11:54.904Z,5.70
2022-12-20T06:14:22.703Z,5.15
2022-12-20T06:16:50.052Z,5.80
2022-12-20T06:19:21.639Z,7.28
2022-12-20T06:21:50.649Z,6.07
2022-12-20T06:24:25.215Z,5.55
2022-12-20T06:26:53.352Z,6.57
2022-12-20T06:29:21.573Z,6.70
2022-12-20T06:31:52.607Z,4.93
2022-12-20T06:34:20.445Z,6.28
2022-12-20T06:36:47.745Z,5.80
2022-12-20T06:39:20.448Z,5.72
2022-12-20T06:41:56.135Z,8.43
2022-12-20T06:44:23.381Z,5.05
2022-12-20T06:46:51.562Z,5.70
2022-12-20T06:49:19.415Z,5.13
2022-12-20T06:51:47.657Z,4.85
2022-12-20T06:54:15.671Z,4.47
2022-12-20T06:56:42.920Z,5.35
2022-12-20T06:59:12.397Z,6.38
2022-12-20T07:01:39.755Z,11.02
2022-12-20T07:04:07.040Z,7.53
2022-12-20T07:06:34.452Z,8.00
2022-12-20T07:09:02.237Z,5.88
2022-12-20T07:11:29.431Z,6.43
2022-12-20T07:13:57.251Z,5.13
2022-12-20T07:16:24.759Z,5.68
2022-12-20T07:18:53.502Z,3.78
2022-12-20T07:21:21.124Z,6.05
2022-12-20T07:23:48.326Z,6.30
2022-12-20T07:26:15.607Z,4.63
2022-12-20T07:28:42.867Z,3.92
2022-12-20T07:31:10.069Z,5.90
2022-12-20T07:33:37.416Z,8.55
2022-12-20T07:36:10.215Z,9.02
2022-12-20T07:38:37.555Z,4.82
2022-12-20T07:41:12.280Z,7.18
2022-12-20T07:46:07.002Z,8.18
2022-12-20T07:48:34.406Z,8.70
2022-12-20T07:51:13.205Z,7.03
2022-12-20T07:53:43.459Z,11.77
2022-12-20T07:56:11.318Z,6.70
2022-12-20T07:58:38.736Z,6.05
2022-12-20T08:01:06.022Z,7.57
2022-12-20T08:03:46.082Z,5.90
2022-12-20T08:06:13.491Z,5.47
2022-12-20T08:08:41.858Z,5.22
2022-12-20T08:11:09.556Z,5.18
2022-12-20T08:13:40.955Z,6.20
2022-12-20T08:16:13.231Z,8.13
2022-12-20T08:18:40.539Z,7.50
2022-12-20T08:21:08.409Z,6.82
2022-12-20T08:23:35.633Z,9.25
2022-12-20T08:26:02.828Z,6.03
2022-12-20T08:28:30.064Z,4.10
2022-12-20T08:31:04.801Z,4.95
2022-12-20T08:33:33.090Z,4.55
2022-12-20T08:36:02.358Z,5.10
2022-12-20T08:38:30.904Z,4.80
2022-12-20T08:41:05.974Z,5.30
2022-12-20T08:43:33.747Z,7.90
2022-12-20T08:46:01.029Z,4.57
2022-12-20T08:48:28.395Z,8.63
2022-12-20T08:50:56.913Z,5.80
2022-12-20T08:53:24.318Z,4.80
2022-12-20T08:55:51.536Z,5.45
2022-12-20T08:58:19.041Z,3.80
2022-12-20T09:00:46.915Z,7.72
2022-12-20T09:03:15.278Z,5.32
2022-12-20T09:05:48.893Z,3.60
2022-12-20T09:08:16.810Z,4.53
2022-12-20T09:10:43.996Z,5.15
2022-12-20T09:13:11.346Z,6.30
2022-12-20T09:15:38.617Z,7.07
2022-12-20T09:18:05.947Z,6.13
2022-12-20T09:20:33.151Z,5.43
2022-12-20T09:23:00.435Z,6.40
2022-12-20T09:25:28.039Z,7.70
2022-12-20T09:27:56.806Z,8.48
2022-12-20T09:30:24.194Z,7.80
2022-12-20T09:32:51.419Z,9.10
2022-12-20T09:35:23.024Z,8.57
2022-12-20T09:37:50.800Z,6.68
2022-12-20T09:40:19.373Z,6.38
2022-12-20T09:42:47.245Z,5.80
2022-12-20T09:45:26.312Z,8.93
2022-12-20T09:47:53.551Z,8.10
2022-12-20T09:50:21.724Z,12.68
2022-12-20T09:52:56.038Z,7.05
2022-12-20T09:55:44.389Z,11.55
2022-12-20T09:58:37.902Z,6.05
2022-12-20T10:01:24.988Z,7.78
2022-12-20T10:03:53.468Z,6.80
2022-12-20T10:06:39.459Z,8.00
2022-12-20T10:09:26.455Z,6.60
2022-12-20T10:12:15.674Z,5.97
2022-12-20T10:15:12.221Z,6.43
2022-12-20T10:18:17.134Z,7.40
2022-12-20T10:20:47.354Z,7.40
2022-12-20T10:23:32.679Z,7.65
2022-12-20T10:26:01.010Z,10.30
2022-12-20T10:28:30.157Z,7.57
2022-12-20T10:31:26.987Z,9.32
2022-12-20T10:33:54.234Z,8.07
2022-12-20T10:36:28.415Z,10.75
2022-12-20T10:38:57.075Z,7.95
2022-12-20T10:41:30.903Z,8.63
2022-12-20T10:44:05.973Z,6.07
2022-12-20T10:46:38.900Z,7.50
2022-12-20T10:49:33.567Z,6.13
2022-12-20T10:52:21.059Z,2.77
2022-12-20T10:54:48.251Z,5.50
2022-12-20T10:57:23.167Z,5.90
2022-12-20T10:59:56.298Z,8.63
2022-12-20T11:02:42.752Z,8.65
2022-12-20T11:05:18.644Z,6.45
2022-12-20T11:08:33.440Z,5.15
2022-12-20T11:10:42.164Z,5.63
2022-12-20T11:13:37.500Z,10.27
2022-12-20T11:16:04.995Z,9.15
2022-12-20T11:18:40.330Z,13.55
2022-12-20T11:21:27.422Z,8.05
2022-12-20T11:24:15.853Z,6.53
2022-12-20T11:27:15.285Z,7.28
2022-12-20T11:29:58.315Z,6.40
2022-12-20T11:32:49.081Z,6.07
2022-12-20T11:35:32.592Z,7.53
2022-12-20T11:38:25.581Z,8.88
2022-12-20T11:40:58.499Z,5.63
2022-12-20T11:44:23.771Z,9.30
2022-12-20T11:46:54.821Z,9.45
2022-12-20T11:49:41.948Z,6.20
2022-12-20T11:52:41.180Z,9.88
2022-12-20T11:55:08.346Z,7.57
2022-12-20T11:58:16.432Z,10.50
2022-12-20T12:00:31.937Z,11.75
2022-12-20T12:03:07.622Z,13.60
2022-12-20T12:05:44.466Z,10.88
2022-12-20T12:08:18.611Z,10.98
2022-12-20T12:11:32.010Z,9.70
2022-12-20T12:14:00.252Z,15.50
2022-12-20T12:16:39.474Z,20.15
2022-12-20T12:19:09.391Z,17.35
2022-12-20T12:21:47.977Z,19.30
2022-12-20T12:24:30.279Z,13.13
2022-12-20T12:26:59.024Z,13.35
2022-12-20T12:29:26.284Z,18.63
2022-12-20T12:31:54.954Z,15.38
2022-12-20T12:34:49.954Z,14.25
2022-12-20T12:37:46.172Z,9.38
2022-12-20T12:40:16.509Z,18.10
2022-12-20T12:43:05.719Z,25.70
2022-12-20T12:45:37.480Z,16.83
2022-12-20T12:48:22.177Z,18.88
2022-12-20T12:50:54.396Z,17.10
2022-12-20T12:53:24.341Z,12.95
2022-12-20T12:56:02.276Z,18.08
2022-12-20T12:58:46.355Z,15.90
2022-12-20T13:01:46.585Z,13.98
2022-12-20T13:04:20.064Z,14.98
2022-12-20T13:06:47.246Z,20.17
2022-12-20T13:09:24.814Z,15.25
2022-12-20T13:12:01.040Z,10.70
2022-12-20T13:14:30.619Z,10.68
2022-12-20T13:17:20.716Z,10.63
2022-12-20T13:19:54.857Z,15.95
2022-12-20T13:22:25.717Z,12.13
2022-12-20T13:24:55.687Z,13.00
2022-12-20T13:27:30.884Z,10.00
2022-12-20T13:30:07.315Z,10.05
2022-12-20T13:32:56.477Z,10.77
2022-12-20T13:35:27.739Z,11.15
2022-12-20T13:38:05.684Z,11.85
2022-12-20T13:40:44.237Z,20.40
2022-12-20T13:43:20.740Z,18.52
2022-12-20T13:46:00.346Z,18.05
2022-12-20T13:48:33.745Z,27.10
2022-12-20T13:51:01.006Z,31.13
2022-12-20T13:53:28.207Z,36.42
2022-12-20T13:55:55.477Z,29.10
2022-12-20T13:58:24.251Z,26.52
2022-12-20T14:00:51.652Z,26.85
2022-12-20T14:03:25.643Z,35.25
2022-12-20T14:05:58.582Z,29.55
2022-12-20T14:08:30.198Z,37.08
2022-12-20T14:11:27.428Z,34.55
2022-12-20T14:13:59.309Z,39.80
2022-12-20T14:16:27.979Z,43.78
2022-12-20T14:19:02.435Z,44.65
2022-12-20T14:21:29.854Z,50.67
2022-12-20T14:23:58.438Z,41.40
2022-12-20T14:26:30.497Z,51.30
2022-12-20T14:28:58.445Z,51.25
2022-12-20T14:31:37.699Z,49.55
2022-12-20T14:34:29.790Z,56.90
2022-12-20T14:37:19.704Z,50.35
2022-12-20T14:40:10.143Z,51.05
2022-12-20T14:42:38.877Z,42.75
2022-12-20T14:45:09.106Z,59.47
2022-12-20T14:47:37.585Z,47.20
2022-12-20T14:50:18.565Z,51.17
2022-12-20T14:52:45.771Z,50.42
2022-12-20T14:55:19.665Z,49.13
2022-12-20T14:57:52.087Z,48.40
2022-12-20T15:00:27.898Z,42.00
2022-12-20T15:03:01.300Z,50.95
2022-12-20T15:05:35.169Z,35.97
2022-12-20T15:08:33.183Z,46.28
2022-12-20T15:11:22.818Z,43.72
2022-12-20T15:13:52.507Z,44.72
2022-12-20T15:16:24.358Z,46.75
2022-12-20T15:18:53.461Z,42.20
2022-12-20T15:21:30.618Z,46.65
2022-12-20T15:23:59.401Z,47.05
2022-12-20T15:26:27.171Z,49.30
2022-12-20T15:28:54.539Z,51.15
2022-12-20T15:31:30.881Z,47.90
2022-12-20T15:34:02.442Z,45.90
2022-12-20T15:36:29.934Z,53.20
2022-12-20T15:39:14.314Z,47.38
2022-12-20T15:41:44.858Z,47.95
2022-12-20T15:44:23.571Z,42.72
2022-12-20T15:46:51.287Z,42.33
2022-12-20T15:49:23.215Z,44.75
2022-12-20T15:51:51.464Z,42.85
2022-12-20T15:54:34.679Z,41.00
2022-12-20T15:57:09.286Z,42.50
2022-12-20T16:02:28.363Z,47.35
2022-12-20T16:04:55.933Z,42.97
2022-12-20T16:07:23.588Z,42.65
2022-12-20T16:09:50.966Z,47.55
2022-12-20T16:12:19.894Z,42.88
2022-12-20T16:14:47.482Z,44.90
2022-12-20T16:17:15.009Z,53.40
2022-12-20T16:19:42.686Z,45.50
2022-12-20T16:22:17.886Z,38.75
2022-12-20T16:24:45.649Z,44.42
2022-12-20T16:27:12.865Z,40.20
2022-12-20T16:29:41.363Z,47.65
2022-12-20T16:32:15.643Z,56.00
2022-12-20T16:34:43.157Z,43.60
2022-12-20T16:37:11.707Z,49.22
2022-12-20T16:39:39.018Z,42.10
2022-12-20T16:42:21.944Z,48.00
2022-12-20T16:44:52.670Z,47.47
2022-12-20T16:47:19.992Z,50.97
2022-12-20T16:49:52.269Z,59.55
2022-12-20T16:52:22.178Z,64.07
2022-12-20T16:54:49.960Z,54.10
2022-12-20T16:57:17.171Z,64.13
2022-12-20T16:59:44.583Z,63.50
2022-12-20T17:02:32.752Z,63.65
2022-12-20T17:05:00.397Z,64.28
2022-12-20T17:07:27.723Z,54.75
2022-12-20T17:10:12.848Z,54.33
2022-12-20T17:12:40.086Z,59.80
2022-12-20T17:15:10.542Z,73.03
2022-12-20T17:17:37.719Z,89.53
2022-12-20T17:20:05.836Z,85.97
2022-12-20T17:22:33.012Z,75.30
2022-12-20T17:25:00.227Z,81.63
2022-12-20T17:27:27.410Z,85.43
2022-12-20T17:29:54.730Z,89.40
2022-12-20T17:32:23.578Z,85.70
2022-12-20T17:34:50.932Z,74.50
2022-12-20T17:37:18.316Z,74.28
2022-12-20T17:39:45.632Z,76.00
2022-12-20T17:42:13.587Z,85.45
2022-12-20T17:44:40.812Z,88.18
2022-12-20T17:47:08.107Z,83.53
2022-12-20T17:49:35.301Z,78.93
2022-12-20T17:52:02.488Z,73.05
2022-12-20T17:54:35.167Z,80.97
2022-12-20T17:57:06.116Z,84.43
2022-12-20T17:59:33.301Z,85.80
2022-12-20T18:02:00.655Z,80.50
2022-12-20T18:04:28.158Z,73.88
2022-12-20T18:06:56.606Z,68.78
2022-12-20T18:09:23.813Z,73.93
2022-12-20T18:11:51.034Z,62.22
2022-12-20T18:14:18.211Z,64.53
2022-12-20T18:16:45.846Z,60.25
2022-12-20T18:19:17.351Z,68.47
2022-12-20T18:21:45.027Z,68.85
2022-12-20T18:24:13.267Z,69.55
2022-12-20T18:26:40.891Z,74.70
2022-12-20T18:29:08.931Z,90.10
2022-12-20T18:31:36.197Z,90.90
2022-12-20T18:34:03.715Z,78.78
2022-12-20T18:36:32.651Z,61.58
2022-12-20T18:39:00.155Z,51.13
2022-12-20T18:41:29.341Z,51.75
2022-12-20T18:43:58.504Z,51.80
2022-12-20T18:46:25.852Z,35.40
2022-12-20T18:48:54.717Z,33.63
2022-12-20T18:51:23.743Z,35.17
2022-12-20T18:53:53.799Z,34.35
2022-12-20T18:56:24.788Z,36.50
2022-12-20T18:58:52.189Z,32.60
2022-12-20T19:01:21.465Z,34.75
2022-12-20T19:03:50.422Z,26.33
2022-12-20T19:06:17.797Z,30.80
2022-12-20T19:08:45.025Z,27.55
2022-12-20T19:11:14.158Z,27.80
2022-12-20T19:13:41.841Z,23.55
2022-12-20T19:16:12.926Z,23.52
2022-12-20T19:18:41.076Z,19.48
2022-12-20T19:21:30.311Z,22.25
2022-12-20T19:23:58.912Z,19.95
2022-12-20T19:26:30.286Z,25.02
2022-12-20T19:28:57.519Z,20.20
2022-12-20T19:31:32.037Z,22.20
2022-12-20T19:34:03.647Z,19.55
2022-12-20T19:36:36.073Z,17.70
2022-12-20T19:39:06.609Z,18.00
2022-12-20T19:41:34.239Z,15.18
2022-12-20T19:44:01.596Z,17.52
2022-12-20T19:46:30.135Z,17.10
2022-12-20T19:48:58.210Z,17.08
2022-12-20T19:51:25.672Z,17.23
2022-12-20T19:53:53.611Z,19.02
2022-12-20T19:56:25.945Z,14.85
2022-12-20T19:58:53.373Z,16.35
2022-12-20T20:01:22.784Z,15.88
2022-12-20T20:03:50.324Z,17.63
2022-12-20T20:06:17.629Z,18.00
2022-12-20T20:08:45.590Z,18.98
2022-12-20T20:11:12.830Z,18.77
2022-12-20T20:13:40.379Z,18.98
2022-12-20T20:16:07.957Z,17.85
2022-12-20T20:18:36.179Z,15.93
2022-12-20T20:21:08.179Z,21.60
2022-12-20T20:23:36.639Z,17.92
2022-12-20T20:26:07.264Z,22.42
2022-12-20T20:28:41.837Z,19.60
2022-12-20T20:31:13.486Z,19.73
2022-12-20T20:33:40.961Z,20.33
2022-12-20T20:36:08.628Z,20.65
2022-12-20T20:38:35.886Z,18.35
2022-12-20T20:41:03.555Z,21.15
2022-12-20T20:43:36.464Z,22.52
2022-12-20T20:46:07.087Z,22.25
2022-12-20T20:48:34.831Z,20.95
2022-12-20T20:51:02.085Z,19.05
2022-12-20T20:53:33.410Z,25.48
2022-12-20T20:56:02.818Z,26.90
2022-12-20T20:58:30.395Z,19.67
2022-12-20T21:01:01.813Z,24.67
2022-12-20T21:03:29.814Z,25.88
2022-12-20T21:06:34.965Z,20.92
2022-12-20T21:08:44.643Z,17.38
2022-12-20T21:11:12.088Z,16.25
2022-12-20T21:13:39.544Z,18.77
2022-12-20T21:16:16.017Z,18.55
2022-12-20T21:18:43.415Z,19.60
2022-12-20T21:21:11.887Z,16.15
2022-12-20T21:23:39.708Z,15.90
2022-12-20T21:26:07.625Z,15.30
2022-12-20T21:28:35.551Z,17.35
2022-12-20T21:31:04.125Z,17.00
2022-12-20T21:33:31.433Z,17.55
2022-12-20T21:36:10.547Z,15.90
2022-12-20T21:38:37.907Z,14.10
2022-12-20T21:41:10.356Z,13.95
2022-12-20T21:43:37.751Z,15.48
2022-12-20T21:46:05.265Z,14.23
2022-12-20T21:48:32.447Z,17.13
2022-12-20T21:51:09.878Z,14.95
2022-12-20T21:53:44.255Z,19.05
2022-12-20T21:56:11.533Z,15.98
2022-12-20T21:58:38.733Z,14.45
2022-12-20T22:01:06.335Z,16.98
2022-12-20T22:03:33.772Z,12.73
2022-12-20T22:06:01.184Z,16.95
2022-12-20T22:08:28.763Z,15.90
2022-12-20T22:11:04.305Z,20.42
2022-12-20T22:13:35.663Z,19.60
2022-12-20T22:16:12.696Z,20.20
2022-12-20T22:18:40.405Z,17.13
2022-12-20T22:21:10.209Z,17.27
2022-12-20T22:23:37.706Z,15.45
2022-12-20T22:26:09.743Z,15.57
2022-12-20T22:28:37.584Z,15.07
2022-12-20T22:31:08.702Z,14.25
2022-12-20T22:33:36.937Z,16.02
2022-12-20T22:36:04.427Z,12.23
2022-12-20T22:38:31.627Z,14.77
2022-12-20T22:41:12.835Z,15.93
2022-12-20T22:43:41.042Z,16.77
2022-12-20T22:46:10.415Z,16.13
2022-12-20T22:48:38.119Z,13.60
2022-12-20T22:51:07.639Z,16.02
2022-12-20T22:53:35.364Z,17.27
2022-12-20T22:56:02.727Z,18.65
2022-12-20T22:58:30.282Z,20.15
2022-12-20T23:00:58.335Z,15.50
2022-12-20T23:03:26.156Z,17.23
2022-12-20T23:06:03.791Z,19.63
2022-12-20T23:08:32.416Z,19.58
2022-12-20T23:11:17.978Z,16.10
2022-12-20T23:14:03.658Z,20.20
2022-12-20T23:16:31.001Z,19.15
2022-12-20T23:19:00.087Z,18.50
2022-12-20T23:21:46.265Z,16.58
2022-12-20T23:24:14.644Z,21.38
2022-12-20T23:26:42.015Z,20.75
2022-12-20T23:29:09.430Z,21.48
2022-12-20T23:31:36.681Z,21.52
2022-12-20T23:34:04.068Z,20.83
2022-12-20T23:36:33.154Z,21.52
2022-12-20T23:39:00.595Z,21.13
2022-12-20T23:41:28.014Z,18.33
2022-12-20T23:43:55.572Z,18.95
2022-12-20T23:46:22.920Z,17.67
2022-12-20T23:48:51.137Z,17.73
2022-12-20T23:51:18.813Z,18.10
2022-12-20T23:53:46.010Z,19.55
2022-12-20T23:56:18.159Z,16.25
2022-12-20T23:58:46.089Z,15.80
